Terminal Aerodrome Forecast
Issued by NWS

Home | Current Version | Previous Version | Text Only | Print | Product List | Glossary On
Versions: 1 2 3 4 5 6 7 8 9 10 11 12 13 14 15 16 17 18 19 20 21 22
955
FTUS46 KSGX 061125
TAFSNA
TAF
KSNA 061125Z 0612/0712 VRB05KT P6SM VCSH SCT015 BKN050
     FM061800 19010KT P6SM -SHRA SCT015 BKN050
     FM062000 22010G18KT P6SM VCSH SCT025 BKN060
     FM070300 24006KT P6SM VCSH SCT025 BKN035
     FM070600 VRB04KT P6SM BKN025 OVC035=

USA.gov is the U.S. government's official web portal to all federal, state and local government web resources and services.